Time;durP1;ratioP1;P1;durP2;ratioP2;P2;SDS_P1;SDS_P2;PMS_P1;PMS_P2;Temp;Humidity;BMP_temperature;BMP_pressure;BME280_temperature;BME280_humidity;BME280_pressure;Samples;Min_cycle;Max_cycle;Signal;HPM_P1;HPM_P2
2022/09/05 00:02:02;;;;;;;5.07;3.17;;;8.60;87.60;;;;;;5076001;28;20174;-83
2022/09/05 00:04:46;;;;;;;7.22;3.58;;;8.50;87.60;;;;;;5085558;28;20044;-81
2022/09/05 00:07:42;;;;;;;6.93;3.25;;;8.50;87.90;;;;;;5076089;28;20036;-83
2022/09/05 00:10:21;;;;;;;7.20;4.00;;;8.50;88.10;;;;;;5046487;28;20178;-81
2022/09/05 00:12:49;;;;;;;4.68;2.88;;;8.50;88.30;;;;;;5076643;28;20314;-81
2022/09/05 00:15:42;;;;;;;5.32;3.47;;;8.50;88.30;;;;;;5075736;28;20403;-79
2022/09/05 00:18:08;;;;;;;6.43;3.25;;;8.40;88.40;;;;;;5076439;28;20052;-80
2022/09/05 00:20:55;;;;;;;6.40;3.60;;;8.40;88.50;;;;;;5078245;28;20068;-80
2022/09/05 00:23:28;;;;;;;;;;;8.30;88.80;;;;;;5080555;28;20086;-80
2022/09/05 00:26:19;;;;;;;4.63;3.25;;;8.30;88.20;;;;;;5082431;28;19908;-82
2022/09/05 00:28:56;;;;;;;5.60;3.20;;;8.20;89.30;;;;;;5071405;28;20043;-82
2022/09/05 00:31:29;;;;;;;4.28;3.15;;;8.20;89.10;;;;;;5087254;28;20035;-82
2022/09/05 00:34:10;;;;;;;6.60;3.70;;;8.20;89.40;;;;;;5087237;28;20028;-82
2022/09/05 00:36:44;;;;;;;6.05;3.90;;;8.20;89.70;;;;;;5090446;28;20381;-82
2022/09/05 00:39:30;;;;;;;4.65;3.50;;;8.10;89.90;;;;;;5090507;28;20565;-81
2022/09/05 00:42:03;;;;;;;5.28;3.63;;;8.10;90.00;;;;;;5087570;28;20020;-82
2022/09/05 00:44:32;;;;;;;4.25;3.15;;;8.10;90.10;;;;;;5077602;28;20062;-81
2022/09/05 00:47:17;;;;;;;4.78;3.50;;;8.10;90.10;;;;;;5069553;28;20066;-82
2022/09/05 00:49:52;;;;;;;4.07;3.15;;;8.10;90.20;;;;;;5087125;28;20052;-82
2022/09/05 00:52:37;;;;;;;5.43;2.95;;;8.00;90.20;;;;;;5097661;28;20013;-81
2022/09/05 00:55:43;;;;;;;6.63;3.28;;;8.00;90.20;;;;;;5093950;28;20028;-80
2022/09/05 00:58:26;;;;;;;6.40;3.40;;;8.00;90.30;;;;;;5054568;28;20032;-80
2022/09/05 01:01:00;;;;;;;4.85;2.88;;;7.90;90.30;;;;;;5074127;28;20028;-81
2022/09/05 01:03:50;;;;;;;6.18;2.92;;;7.90;90.50;;;;;;5088079;28;20024;-81
2022/09/05 01:06:40;;;;;;;3.75;2.72;;;7.90;90.60;;;;;;5071943;28;20441;-81
2022/09/05 01:09:39;;;;;;;8.88;3.22;;;7.90;90.70;;;;;;5092092;28;20024;-81
2022/09/05 01:12:27;;;;;;;5.55;3.45;;;7.80;90.70;;;;;;5089314;28;20119;-80
2022/09/05 01:15:28;;;;;;;5.55;3.50;;;7.80;90.90;;;;;;5078189;28;20533;-81
2022/09/05 01:18:18;;;;;;;4.97;2.90;;;7.80;91.00;;;;;;5043722;28;20060;-81
2022/09/05 01:21:16;;;;;;;4.40;2.72;;;7.70;91.00;;;;;;5075324;28;20034;-80
2022/09/05 01:23:53;;;;;;;3.55;3.00;;;7.70;91.10;;;;;;5075488;28;20029;-81
2022/09/05 01:26:37;;;;;;;5.22;3.70;;;7.70;91.10;;;;;;5073700;28;20123;-81
2022/09/05 01:29:14;;;;;;;6.53;3.17;;;7.70;91.20;;;;;;5074425;28;20047;-80
2022/09/05 01:32:21;;;;;;;5.88;3.08;;;7.70;91.30;;;;;;5075821;28;20031;-81
2022/09/05 01:34:50;;;;;;;5.90;3.17;;;7.70;91.40;;;;;;5076575;28;20083;-80
2022/09/05 01:37:25;;;;;;;6.30;3.78;;;7.70;91.30;;;;;;5075310;28;20028;-81
2022/09/05 01:40:19;;;;;;;4.57;3.03;;;7.60;91.40;;;;;;5076809;28;20035;-80
2022/09/05 01:42:51;;;;;;;6.45;3.63;;;7.60;91.50;;;;;;5076807;28;20082;-80
2022/09/05 01:45:44;;;;;;;4.47;3.67;;;7.60;91.50;;;;;;5075142;28;20016;-81
2022/09/05 01:48:25;;;;;;;8.15;4.30;;;7.70;91.70;;;;;;5075856;28;20472;-80
2022/09/05 01:51:28;;;;;;;8.60;3.60;;;7.80;91.60;;;;;;5071479;28;20036;-83
2022/09/05 01:54:32;;;;;;;6.93;4.15;;;7.90;91.40;;;;;;5059893;28;20413;-81
2022/09/05 01:56:58;;;;;;;3.78;3.13;;;8.00;91.30;;;;;;5075073;28;20024;-82
2022/09/05 01:59:39;;;;;;;4.68;3.35;;;8.10;91.10;;;;;;5078630;28;20582;-84
2022/09/05 02:02:17;;;;;;;6.60;2.53;;;8.10;91.00;;;;;;5074495;28;20470;-83
2022/09/05 02:05:15;;;;;;;;;;;8.20;90.90;;;;;;5079687;28;20055;-82
2022/09/05 02:07:46;;;;;;;4.90;2.97;;;8.20;90.70;;;;;;5045829;28;19912;-82
2022/09/05 02:10:31;;;;;;;6.30;3.10;;;8.20;90.70;;;;;;5085757;28;20023;-82
2022/09/05 02:13:15;;;;;;;5.50;3.20;;;8.20;90.70;;;;;;5074503;28;20017;-83
2022/09/05 02:15:51;;;;;;;4.15;3.05;;;8.10;90.80;;;;;;5091171;28;20020;-82
2022/09/05 02:18:25;;;;;;;3.67;2.95;;;8.00;90.90;;;;;;5092433;28;20020;-82
2022/09/05 02:20:57;;;;;;;4.00;2.70;;;8.00;91.00;;;;;;5102016;28;20063;-82
2022/09/05 02:23:37;;;;;;;7.10;3.30;;;8.00;91.00;;;;;;5096926;28;20099;-82
2022/09/05 02:26:11;;;;;;;4.43;3.03;;;8.10;91.10;;;;;;5082559;28;20008;-82
2022/09/05 02:29:00;;;;;;;3.42;2.80;;;8.10;91.10;;;;;;5087874;28;20021;-83
2022/09/05 02:31:49;;;;;;;6.00;3.55;;;8.20;91.10;;;;;;5073888;28;20020;-83
2022/09/05 02:34:44;;;;;;;4.85;3.20;;;8.20;91.00;;;;;;5073738;28;20390;-83
2022/09/05 02:37:21;;;;;;;5.65;3.63;;;8.30;91.00;;;;;;5064083;28;20024;-83
2022/09/05 02:39:56;;;;;;;4.60;3.10;;;8.30;90.90;;;;;;5077983;28;20489;-82
2022/09/05 02:42:27;;;;;;;10.25;3.05;;;8.30;90.90;;;;;;5079486;28;20037;-82
2022/09/05 02:45:17;;;;;;;4.82;2.85;;;8.40;90.90;;;;;;5084359;28;20028;-83
2022/09/05 02:48:09;;;;;;;3.72;2.80;;;8.40;90.80;;;;;;5093720;28;20036;-83
2022/09/05 02:51:06;;;;;;;5.28;3.15;;;8.50;90.70;;;;;;5091318;28;20114;-81
2022/09/05 02:53:35;;;;;;;3.50;2.67;;;8.60;90.60;;;;;;5077337;28;20036;-81
2022/09/05 02:56:19;;;;;;;3.42;2.45;;;8.60;90.50;;;;;;5078973;28;20083;-81
2022/09/05 02:59:22;;;;;;;5.57;2.97;;;8.60;90.40;;;;;;5076447;28;20016;-82
2022/09/05 03:02:11;;;;;;;6.10;3.63;;;8.70;90.30;;;;;;5087124;28;20070;-81
2022/09/05 03:04:40;;;;;;;4.00;3.13;;;8.70;90.20;;;;;;5083427;28;20016;-83
2022/09/05 03:07:22;;;;;;;7.07;3.60;;;8.80;90.20;;;;;;5083242;28;20481;-82
2022/09/05 03:10:16;;;;;;;6.72;3.05;;;8.80;90.10;;;;;;5081633;28;20458;-81
2022/09/05 03:13:10;;;;;;;5.57;3.50;;;8.80;90.00;;;;;;5079436;28;20017;-80
2022/09/05 03:16:13;;;;;;;7.30;3.50;;;8.80;89.90;;;;;;5078028;28;20039;-81
2022/09/05 03:19:13;;;;;;;5.35;2.88;;;8.80;89.90;;;;;;5085186;28;20076;-81
2022/09/05 03:22:18;;;;;;;4.68;2.70;;;8.90;89.80;;;;;;5085103;28;20059;-81
2022/09/05 03:25:21;;;;;;;5.63;3.25;;;8.90;89.70;;;;;;5083404;28;20037;-83
2022/09/05 03:28:04;;;;;;;4.85;3.13;;;8.90;89.70;;;;;;5075774;28;20024;-83
2022/09/05 03:30:42;;;;;;;10.25;4.07;;;8.90;89.60;;;;;;5064529;28;20501;-82
2022/09/05 03:33:45;;;;;;;7.43;4.07;;;8.90;89.50;;;;;;5076863;28;20020;-83
2022/09/05 03:36:38;;;;;;;4.72;3.50;;;9.00;89.30;;;;;;5078557;28;20506;-83
2022/09/05 03:39:37;;;;;;;5.18;3.42;;;9.00;89.20;;;;;;5075158;28;20025;-82
2022/09/05 03:42:25;;;;;;;9.88;4.00;;;9.10;89.10;;;;;;5077359;28;20016;-81
2022/09/05 03:45:21;;;;;;;6.55;3.05;;;9.10;88.90;;;;;;5079346;28;20089;-82
2022/09/05 03:48:19;;;;;;;3.45;3.00;;;9.20;88.80;;;;;;5075342;28;20048;-82
2022/09/05 03:50:54;;;;;;;6.43;3.47;;;9.10;88.70;;;;;;5079250;28;20037;-81
2022/09/05 03:53:57;;;;;;;5.75;3.35;;;9.20;88.70;;;;;;5082664;28;20020;-80
2022/09/05 03:56:48;;;;;;;4.40;3.22;;;9.10;88.30;;;;;;5082721;28;20048;-82
2022/09/05 03:59:50;;;;;;;4.47;3.15;;;9.10;88.40;;;;;;5074082;28;20012;-82
2022/09/05 04:02:27;;;;;;;7.30;3.20;;;9.10;88.40;;;;;;5091662;28;20031;-82
2022/09/05 04:04:59;;;;;;;5.13;2.97;;;9.10;88.60;;;;;;5085514;28;20019;-82
2022/09/05 04:08:16;;;;;;;8.43;3.63;;;9.10;88.60;;;;;;5084085;28;20029;-82
2022/09/05 04:11:00;;;;;;;7.18;4.03;;;9.00;88.80;;;;;;5048048;28;20081;-82
2022/09/05 04:13:47;;;;;;;5.57;3.35;;;9.00;89.10;;;;;;5088588;28;20020;-82
2022/09/05 04:16:19;;;;;;;4.55;3.03;;;9.00;89.10;;;;;;5070074;28;20021;-82
2022/09/05 04:19:05;;;;;;;5.03;3.03;;;9.00;89.20;;;;;;5091309;28;20058;-83
2022/09/05 04:21:35;;;;;;;5.37;3.63;;;9.10;89.20;;;;;;5071340;28;20386;-81
2022/09/05 04:24:03;;;;;;;4.20;3.60;;;9.10;89.00;;;;;;5085321;28;20028;-81
2022/09/05 04:27:24;;;;;;;4.20;3.17;;;9.10;89.00;;;;;;5076261;28;20076;-82
2022/09/05 04:30:21;;;;;;;4.95;3.63;;;9.10;89.10;;;;;;5012492;28;20046;-80
2022/09/05 04:32:52;;;;;;;7.70;3.78;;;9.20;89.00;;;;;;5026563;28;20036;-81
2022/09/05 04:35:27;;;;;;;4.90;3.85;;;9.20;88.80;;;;;;5019310;28;20080;-81
2022/09/05 04:38:13;;;;;;;7.50;3.60;;;9.30;88.70;;;;;;5016482;28;20403;-83
2022/09/05 04:40:44;;;;;;;4.82;3.42;;;9.30;88.40;;;;;;4988758;28;20026;-82
2022/09/05 04:43:09;;;;;;;7.03;3.38;;;9.40;88.30;;;;;;5021554;28;20364;-83
2022/09/05 04:46:00;;;;;;;5.53;3.42;;;9.40;88.10;;;;;;5018231;28;20177;-82
2022/09/05 04:48:58;;;;;;;4.50;3.95;;;9.60;87.90;;;;;;5022448;28;20083;-83
2022/09/05 04:51:38;;;;;;;;;;;9.60;87.40;;;;;;5026226;28;20053;-83
2022/09/05 04:54:16;;;;;;;5.28;3.72;;;9.70;87.20;;;;;;5020437;28;20256;-82
2022/09/05 04:56:48;;;;;;;7.63;3.60;;;9.80;87.30;;;;;;5025155;28;20029;-83
2022/09/05 04:59:27;;;;;;;7.07;3.97;;;10.00;86.80;;;;;;5034140;28;20029;-80
2022/09/05 05:01:58;;;;;;;4.30;3.55;;;10.20;86.20;;;;;;5018775;28;20128;-82
2022/09/05 05:04:26;;;;;;;4.25;3.50;;;10.30;85.80;;;;;;5070985;28;20035;-82
2022/09/05 05:07:23;;;;;;;4.63;3.47;;;10.50;85.00;;;;;;5087082;28;20582;-83
2022/09/05 05:09:55;;;;;;;6.03;3.55;;;10.60;84.30;;;;;;5083341;28;20101;-83
2022/09/05 05:12:54;;;;;;;7.35;4.35;;;10.60;83.70;;;;;;5086247;28;20362;-83
2022/09/05 05:15:23;;;;;;;6.75;4.10;;;10.70;83.50;;;;;;5077507;28;20133;-82
2022/09/05 05:17:56;;;;;;;5.88;3.92;;;10.70;83.00;;;;;;5086545;28;20027;-83
2022/09/05 05:20:57;;;;;;;7.40;3.95;;;10.60;83.20;;;;;;5080977;28;20027;-83
2022/09/05 05:23:33;;;;;;;5.80;4.63;;;10.50;83.40;;;;;;5066475;28;20438;-83
2022/09/05 05:26:03;;;;;;;7.40;4.57;;;10.50;83.60;;;;;;5061294;28;20394;-84
2022/09/05 05:28:53;;;;;;;7.50;4.95;;;10.60;83.50;;;;;;5061746;28;20050;-84
2022/09/05 05:31:46;;;;;;;7.00;4.07;;;10.80;83.60;;;;;;5077966;28;20437;-83
2022/09/05 05:34:21;;;;;;;6.93;4.95;;;11.20;82.70;;;;;;5087232;28;20057;-83
2022/09/05 05:37:14;;;;;;;9.43;4.63;;;11.40;81.30;;;;;;5093290;28;20019;-85
2022/09/05 05:40:05;;;;;;;10.52;4.93;;;11.60;80.70;;;;;;5067022;28;20040;-84
2022/09/05 05:42:31;;;;;;;9.88;4.88;;;11.80;80.10;;;;;;5068143;28;20029;-83
2022/09/05 05:44:58;;;;;;;10.98;4.75;;;11.90;79.70;;;;;;5082254;28;20054;-83
2022/09/05 05:47:33;;;;;;;8.83;4.20;;;12.00;78.50;;;;;;5079229;28;20016;-83
2022/09/05 05:50:03;;;;;;;7.50;4.80;;;11.90;78.30;;;;;;5080527;28;20035;-84
2022/09/05 05:53:03;;;;;;;7.43;4.63;;;11.80;78.80;;;;;;5077034;28;20016;-84
2022/09/05 05:56:07;;;;;;;11.70;5.10;;;12.00;78.90;;;;;;5076041;28;20029;-83
2022/09/05 05:58:46;;;;;;;10.00;4.63;;;12.30;78.30;;;;;;5042664;28;20040;-83
2022/09/05 06:01:45;;;;;;;6.95;4.72;;;12.60;77.00;;;;;;5091041;28;20016;-83
2022/09/05 06:04:49;;;;;;;8.55;5.45;;;12.90;76.20;;;;;;5087299;28;20457;-83
2022/09/05 06:07:42;;;;;;;7.75;5.22;;;13.60;75.30;;;;;;5048814;28;20039;-84
2022/09/05 06:10:38;;;;;;;9.02;5.80;;;14.60;72.40;;;;;;5093457;28;20032;-84
2022/09/05 06:13:20;;;;;;;9.55;4.85;;;14.90;69.70;;;;;;5056037;28;20542;-87
2022/09/05 06:16:23;;;;;;;7.55;5.35;;;15.00;68.60;;;;;;5087301;28;20446;-85
2022/09/05 06:19:10;;;;;;;5.55;4.45;;;14.90;68.50;;;;;;5092720;28;20395;-84
2022/09/05 06:21:46;;;;;;;11.20;5.68;;;14.60;68.40;;;;;;5065449;28;20025;-82
2022/09/05 06:24:40;;;;;;;7.00;5.03;;;14.40;69.10;;;;;;5072266;28;20025;-82
2022/09/05 06:27:29;;;;;;;10.65;5.25;;;14.20;69.50;;;;;;5071638;28;20036;-85
2022/09/05 06:30:19;;;;;;;6.65;5.82;;;14.20;70.10;;;;;;5072284;28;20107;-85
2022/09/05 06:33:05;;;;;;;10.70;5.50;;;14.20;69.60;;;;;;5066306;28;20027;-85
2022/09/05 06:35:34;;;;;;;9.50;5.75;;;14.40;69.50;;;;;;5074921;28;20056;-84
2022/09/05 06:38:38;;;;;;;10.27;5.53;;;14.90;69.40;;;;;;5098958;28;20023;-84
2022/09/05 06:41:19;;;;;;;8.77;5.60;;;15.50;66.80;;;;;;5076907;28;20373;-83
2022/09/05 06:44:00;;;;;;;10.38;5.63;;;15.70;65.80;;;;;;5078161;28;20016;-83
2022/09/05 06:46:36;;;;;;;11.95;5.22;;;15.80;64.50;;;;;;5081000;28;20033;-84
2022/09/05 06:49:28;;;;;;;7.68;5.22;;;15.50;64.40;;;;;;5060813;28;20017;-84
2022/09/05 06:52:36;;;;;;;6.80;5.70;;;15.20;65.70;;;;;;5077276;28;20024;-86
2022/09/05 06:55:15;;;;;;;13.30;5.75;;;15.40;66.00;;;;;;5075636;28;20047;-84
2022/09/05 06:58:28;;;;;;;7.47;5.47;;;15.90;65.60;;;;;;5082742;28;20029;-86
2022/09/05 07:00:56;;;;;;;9.80;5.25;;;16.50;63.40;;;;;;5078992;28;20047;-87
2022/09/05 07:03:46;;;;;;;9.75;4.70;;;16.60;62.40;;;;;;5072233;28;20106;-85
2022/09/05 07:06:47;;;;;;;7.97;4.97;;;16.60;61.40;;;;;;5081836;28;20126;-85
2022/09/05 07:09:25;;;;;;;7.07;5.28;;;16.50;61.60;;;;;;5102472;28;20420;-83
2022/09/05 07:12:06;;;;;;;7.75;4.60;;;17.60;60.90;;;;;;5082338;28;20033;-85
2022/09/05 07:14:48;;;;;;;8.02;4.55;;;17.70;60.10;;;;;;5072051;28;20032;-83
2022/09/05 07:17:36;;;;;;;9.30;5.72;;;18.60;57.00;;;;;;5076839;28;20017;-83
2022/09/05 07:20:12;;;;;;;12.07;5.20;;;;;;;;;;5077433;28;20108;-83
2022/09/05 07:22:38;;;;;;;16.33;10.13;;;;;;;;;;5078285;28;20029;-83
2022/09/05 07:25:06;;;;;;;8.55;5.30;;;;;;;;;;5078170;28;20044;-86
2022/09/05 07:27:46;;;;;;;7.30;4.80;;;;;;;;;;5075154;28;20445;-87
2022/09/05 07:30:12;;;;;;;6.60;4.90;;;19.40;56.70;;;;;;5075842;28;20393;-85
2022/09/05 07:32:46;;;;;;;5.57;3.90;;;19.00;52.70;;;;;;5086174;28;20027;-85
2022/09/05 07:35:21;;;;;;;6.43;4.13;;;17.60;54.80;;;;;;5078431;28;20032;-86
2022/09/05 07:38:01;;;;;;;10.90;5.50;;;16.70;57.50;;;;;;5075754;28;20128;-86
2022/09/05 07:40:31;;;;;;;9.85;4.75;;;15.80;59.60;;;;;;5086382;28;20091;-86
2022/09/05 07:43:08;;;;;;;7.70;4.47;;;15.10;61.50;;;;;;5086362;28;20039;-85
2022/09/05 07:45:37;;;;;;;10.35;4.28;;;14.50;63.50;;;;;;5066922;28;20432;-84
2022/09/05 07:48:22;;;;;;;5.82;4.43;;;14.00;65.10;;;;;;5078691;28;20085;-85
2022/09/05 07:50:59;;;;;;;6.55;4.75;;;13.60;66.60;;;;;;5066431;28;20096;-85
2022/09/05 07:53:26;;;;;;;7.32;4.60;;;13.30;67.80;;;;;;5070400;28;20069;-83
2022/09/05 07:55:57;;;;;;;5.35;4.60;;;13.00;69.00;;;;;;5066435;28;20025;-83
2022/09/05 07:58:34;;;;;;;6.70;3.92;;;12.70;69.90;;;;;;5072525;28;20044;-79
2022/09/05 08:01:01;;;;;;;5.78;3.92;;;12.50;70.60;;;;;;5084391;28;20028;-81
2022/09/05 08:03:30;;;;;;;4.63;3.05;;;12.40;70.50;;;;;;5072677;28;20059;-85
2022/09/05 08:06:03;;;;;;;4.05;2.85;;;12.40;69.60;;;;;;5066057;28;20032;-82
2022/09/05 08:08:50;;;;;;;5.90;3.97;;;12.50;68.90;;;;;;5072254;28;20024;-82
2022/09/05 08:11:18;;;;;;;4.25;3.60;;;12.50;68.80;;;;;;5071683;28;20036;-81
2022/09/05 08:14:15;;;;;;;7.13;3.45;;;12.70;69.10;;;;;;5072572;28;20029;-83
2022/09/05 08:16:44;;;;;;;8.57;3.63;;;12.90;69.20;;;;;;5061539;28;20097;-84
2022/09/05 08:19:44;;;;;;;7.70;3.75;;;14.40;69.40;;;;;;5073567;28;20103;-82
2022/09/05 08:22:20;;;;;;;7.00;3.53;;;16.30;63.40;;;;;;5056908;28;20116;-80
2022/09/05 08:25:12;;;;;;;10.98;3.50;;;16.70;60.30;;;;;;5065639;28;20080;-82
2022/09/05 08:28:05;;;;;;;3.70;3.10;;;16.40;59.80;;;;;;5087960;28;20040;-84
2022/09/05 08:30:42;;;;;;;7.13;3.25;;;15.80;60.10;;;;;;5063850;28;20036;-84
2022/09/05 08:33:13;;;;;;;;;;;15.10;61.30;;;;;;5077768;28;20099;-84
2022/09/05 08:36:13;;;;;;;11.20;4.38;;;14.60;62.70;;;;;;5075951;28;20378;-82
2022/09/05 08:38:42;;;;;;;6.80;3.90;;;14.30;63.40;;;;;;5058508;28;20044;-83
2022/09/05 08:41:19;;;;;;;8.18;3.65;;;14.30;63.40;;;;;;5074408;28;20038;-83
2022/09/05 08:44:13;;;;;;;5.95;3.30;;;14.40;63.50;;;;;;5097981;28;20028;-84
2022/09/05 08:47:00;;;;;;;5.28;3.00;;;14.50;63.10;;;;;;5083962;28;20394;-83
2022/09/05 08:50:10;;;;;;;3.22;2.72;;;14.50;62.70;;;;;;5076606;28;20027;-86
2022/09/05 08:52:50;;;;;;;4.90;2.88;;;14.70;62.60;;;;;;5063975;28;20552;-86
2022/09/05 08:55:40;;;;;;;4.45;2.35;;;14.60;62.00;;;;;;5075148;28;20028;-89
2022/09/05 08:58:32;;;;;;;3.72;2.40;;;14.50;62.20;;;;;;5078478;28;20024;-86
2022/09/05 09:01:01;;;;;;;3.35;2.30;;;14.40;61.90;;;;;;5074252;28;20457;-89
2022/09/05 09:04:15;;;;;;;2.35;1.58;;;14.20;61.10;;;;;;5077593;28;20019;-86
2022/09/05 09:06:50;;;;;;;7.72;2.03;;;13.90;61.20;;;;;;5037874;28;20045;-87
2022/09/05 09:09:26;;;;;;;4.43;2.10;;;13.60;61.90;;;;;;5075086;28;20032;-84
2022/09/05 09:12:18;;;;;;;6.35;2.10;;;13.50;62.70;;;;;;5076684;28;20409;-85
2022/09/05 09:15:07;;;;;;;3.70;2.22;;;13.60;63.80;;;;;;5076014;28;20060;-83
2022/09/05 09:17:46;;;;;;;3.97;2.15;;;13.70;64.00;;;;;;5046717;28;20037;-86
2022/09/05 09:20:17;;;;;;;4.90;2.35;;;13.90;63.90;;;;;;5073799;28;20020;-84
2022/09/05 09:22:49;;;;;;;2.80;1.85;;;14.10;63.50;;;;;;5073552;28;20024;-84
2022/09/05 09:25:21;;;;;;;6.38;1.90;;;14.20;62.20;;;;;;5079335;28;20478;-87
2022/09/05 09:28:24;;;;;;;3.05;2.10;;;14.20;62.40;;;;;;5083268;28;20021;-86
2022/09/05 09:30:58;;;;;;;3.22;1.92;;;14.20;62.50;;;;;;5071019;28;20041;-83
2022/09/05 09:34:02;;;;;;;7.78;1.92;;;14.50;62.40;;;;;;5089476;28;20013;-85
2022/09/05 09:36:42;;;;;;;4.53;1.33;;;14.80;61.50;;;;;;5067059;28;20446;-86
2022/09/05 09:39:40;;;;;;;3.33;1.27;;;14.80;59.60;;;;;;5040671;28;20071;-87
2022/09/05 09:42:35;;;;;;;1.63;1.15;;;14.50;59.80;;;;;;5053913;28;20021;-87
2022/09/05 09:45:14;;;;;;;5.28;1.83;;;14.20;60.30;;;;;;5034781;28;20056;-87
2022/09/05 09:47:57;;;;;;;2.10;1.63;;;13.80;61.30;;;;;;5030989;28;20026;-84
2022/09/05 09:50:57;;;;;;;1.85;1.52;;;13.60;62.20;;;;;;5039069;28;20485;-91
2022/09/05 09:53:44;;;;;;;5.45;1.52;;;13.50;62.90;;;;;;5022999;28;20029;-87
2022/09/05 09:56:42;;;;;;;3.28;1.60;;;13.50;63.40;;;;;;5029325;28;20030;-87
2022/09/05 09:59:28;;;;;;;1.90;1.20;;;13.50;63.80;;;;;;5019458;28;20032;-83
2022/09/05 10:02:19;;;;;;;2.28;1.42;;;13.50;64.00;;;;;;5041424;28;20040;-87
2022/09/05 10:05:28;;;;;;;2.50;1.60;;;13.60;64.80;;;;;;5029862;28;20033;-88
2022/09/05 10:08:08;;;;;;;4.00;2.08;;;13.40;64.40;;;;;;5016428;28;20029;-85
2022/09/05 10:11:02;;;;;;;3.78;1.92;;;13.30;65.10;;;;;;5060800;28;20048;-84
2022/09/05 10:13:56;;;;;;;3.15;1.60;;;13.20;65.60;;;;;;5078067;28;20025;-83
2022/09/05 10:16:33;;;;;;;2.40;1.55;;;13.10;66.10;;;;;;5080160;28;20035;-86
2022/09/05 10:19:32;;;;;;;2.85;1.60;;;13.00;66.30;;;;;;5081185;28;20016;-86
2022/09/05 10:22:19;;;;;;;3.97;1.50;;;13.00;66.30;;;;;;5083299;28;20043;-82
2022/09/05 10:25:09;;;;;;;6.57;1.98;;;12.90;66.80;;;;;;5077750;28;20435;-84
2022/09/05 10:28:03;;;;;;;1.92;1.33;;;12.80;67.70;;;;;;5080488;28;20053;-83
2022/09/05 10:30:59;;;;;;;2.10;1.75;;;12.80;67.90;;;;;;5084224;28;20064;-86
2022/09/05 10:33:42;;;;;;;1.98;1.70;;;12.80;68.00;;;;;;5080261;28;20079;-82
2022/09/05 10:36:21;;;;;;;4.68;1.65;;;12.90;68.50;;;;;;5078271;28;20397;-87
2022/09/05 10:38:59;;;;;;;5.32;1.83;;;12.90;68.60;;;;;;5064634;28;20071;-85
2022/09/05 10:41:42;;;;;;;3.67;2.17;;;12.90;68.80;;;;;;5079599;28;20029;-87
2022/09/05 10:44:10;;;;;;;5.00;2.13;;;12.80;69.40;;;;;;5057867;28;20029;-84
2022/09/05 10:46:50;;;;;;;3.05;2.00;;;12.60;70.00;;;;;;5075498;28;20021;-84
2022/09/05 10:49:29;;;;;;;2.45;1.80;;;12.60;70.70;;;;;;5075246;28;20076;-85
2022/09/05 10:52:14;;;;;;;4.05;2.28;;;12.80;71.60;;;;;;5084890;28;20036;-87
2022/09/05 10:55:09;;;;;;;3.20;2.17;;;13.10;70.40;;;;;;5057386;28;20054;-85
2022/09/05 10:58:00;;;;;;;6.30;2.97;;;13.30;69.80;;;;;;5043864;28;20040;-85
2022/09/05 11:00:42;;;;;;;3.33;1.98;;;13.70;69.10;;;;;;5051441;28;20097;-85
2022/09/05 11:03:28;;;;;;;3.95;2.30;;;14.20;68.10;;;;;;5051132;28;20022;-86
2022/09/05 11:06:01;;;;;;;4.78;2.17;;;14.30;67.40;;;;;;5058605;28;20036;-84
2022/09/05 11:08:36;;;;;;;4.65;2.50;;;14.50;67.90;;;;;;5039154;28;20094;-84
2022/09/05 11:11:16;;;;;;;4.28;1.73;;;14.50;69.20;;;;;;5062054;28;20044;-85
2022/09/05 11:13:54;;;;;;;4.25;1.75;;;14.50;69.80;;;;;;5045182;28;20033;-84
2022/09/05 11:16:41;;;;;;;3.83;1.40;;;14.30;69.40;;;;;;5051965;28;20025;-87
2022/09/05 11:19:12;;;;;;;;;;;14.10;69.80;;;;;;5054866;28;20116;-83
2022/09/05 11:22:01;;;;;;;2.80;1.70;;;13.90;70.00;;;;;;5056203;28;19904;-82
2022/09/05 11:24:38;;;;;;;3.70;1.10;;;13.40;72.80;;;;;;5069549;28;20035;-88
2022/09/05 11:27:38;;;;;;;1.58;1.48;;;12.90;73.70;;;;;;5048407;28;20390;-85
2022/09/05 11:30:11;;;;;;;5.43;1.95;;;12.80;75.50;;;;;;5055491;28;20124;-82
2022/09/05 11:33:17;;;;;;;2.25;1.70;;;13.10;76.70;;;;;;5066825;28;20367;-84
2022/09/05 11:36:01;;;;;;;5.57;1.97;;;13.50;75.60;;;;;;5071343;28;20502;-84
2022/09/05 11:38:46;;;;;;;3.92;2.33;;;14.00;74.10;;;;;;5087018;28;20012;-86
2022/09/05 11:41:44;;;;;;;3.05;1.63;;;14.30;73.00;;;;;;5065952;28;20131;-84
2022/09/05 11:44:23;;;;;;;3.05;1.60;;;14.60;71.60;;;;;;5065888;28;20021;-85
2022/09/05 11:47:18;;;;;;;3.83;1.35;;;14.70;70.50;;;;;;5088878;28;20031;-85
2022/09/05 11:49:59;;;;;;;1.35;1.10;;;14.50;69.80;;;;;;5102521;28;20036;-84
2022/09/05 11:52:43;;;;;;;2.33;1.42;;;14.20;70.10;;;;;;5088812;28;20075;-86
2022/09/05 11:55:23;;;;;;;2.72;0.85;;;14.10;71.00;;;;;;5096593;28;20056;-82
2022/09/05 11:58:04;;;;;;;3.35;1.20;;;14.10;70.60;;;;;;5085282;28;20023;-81
2022/09/05 12:00:44;;;;;;;3.95;1.35;;;14.10;70.20;;;;;;5079249;28;20024;-82
2022/09/05 12:03:40;;;;;;;2.60;1.55;;;14.20;71.20;;;;;;5082109;28;20095;-82
2022/09/05 12:06:35;;;;;;;3.22;1.63;;;14.20;70.80;;;;;;5063289;28;20079;-82
2022/09/05 12:09:44;;;;;;;3.78;2.25;;;14.30;71.80;;;;;;5058709;28;20045;-81
2022/09/05 12:12:25;;;;;;;4.63;2.53;;;14.30;72.50;;;;;;5082390;28;20040;-86
2022/09/05 12:15:01;;;;;;;8.15;4.75;;;14.20;73.90;;;;;;5081440;28;20028;-85
2022/09/05 12:18:01;;;;;;;2.20;1.53;;;14.20;75.00;;;;;;5082657;28;20064;-86
2022/09/05 12:20:45;;;;;;;2.65;1.40;;;14.30;74.40;;;;;;5077120;28;20082;-86
2022/09/05 12:23:20;;;;;;;3.35;1.83;;;14.40;74.20;;;;;;5080815;28;20039;-86
2022/09/05 12:26:16;;;;;;;4.10;2.00;;;14.50;74.10;;;;;;5101987;28;20023;-88
2022/09/05 12:28:51;;;;;;;3.03;1.60;;;14.70;72.80;;;;;;5079230;28;20405;-87
2022/09/05 12:31:39;;;;;;;4.30;1.95;;;14.70;72.70;;;;;;5088509;28;20036;-85
2022/09/05 12:34:12;;;;;;;5.13;1.70;;;14.60;72.70;;;;;;5096406;28;20031;-83
2022/09/05 12:36:42;;;;;;;3.88;2.17;;;14.50;72.30;;;;;;5083735;28;20045;-80
2022/09/05 12:39:30;;;;;;;4.07;2.72;;;14.50;73.20;;;;;;5094670;28;20358;-83
2022/09/05 12:42:02;;;;;;;3.97;1.90;;;14.50;73.30;;;;;;5092017;28;20059;-80
2022/09/05 12:45:07;;;;;;;4.03;2.10;;;14.70;73.20;;;;;;5082518;28;20013;-84
2022/09/05 12:47:54;;;;;;;4.50;2.40;;;15.10;72.20;;;;;;5087572;28;20071;-81
2022/09/05 12:50:24;;;;;;;3.30;2.05;;;15.10;71.50;;;;;;5068304;28;20032;-84
2022/09/05 12:53:00;;;;;;;3.80;2.25;;;15.10;70.70;;;;;;5085138;28;20031;-84
2022/09/05 12:55:35;;;;;;;4.18;2.33;;;14.90;70.40;;;;;;5075781;28;20101;-81
2022/09/05 12:58:10;;;;;;;5.95;2.20;;;14.60;69.90;;;;;;5082607;28;20028;-80
2022/09/05 13:00:44;;;;;;;2.42;1.80;;;14.40;70.70;;;;;;5093595;28;20028;-81
2022/09/05 13:03:26;;;;;;;2.47;2.28;;;14.10;71.40;;;;;;5087183;28;20024;-82
2022/09/05 13:06:09;;;;;;;2.17;1.70;;;13.90;71.70;;;;;;5091653;28;20092;-82
2022/09/05 13:08:46;;;;;;;5.75;2.20;;;13.70;72.20;;;;;;5080132;28;20017;-83
2022/09/05 13:11:17;;;;;;;3.28;2.17;;;13.60;73.10;;;;;;5063977;28;20489;-83
2022/09/05 13:13:59;;;;;;;3.08;2.13;;;13.50;73.70;;;;;;5071638;28;20024;-84
2022/09/05 13:16:28;;;;;;;3.97;2.20;;;13.40;74.10;;;;;;5082571;28;20021;-83
2022/09/05 13:19:11;;;;;;;2.67;2.13;;;13.30;74.50;;;;;;5080006;28;20374;-83
2022/09/05 13:21:44;;;;;;;3.53;2.13;;;13.20;74.90;;;;;;5080332;28;20024;-83
2022/09/05 13:24:26;;;;;;;2.97;2.08;;;13.10;75.20;;;;;;5074299;28;20060;-82
2022/09/05 13:27:08;;;;;;;3.53;2.40;;;13.10;75.20;;;;;;5100315;28;20020;-83
2022/09/05 13:29:50;;;;;;;3.45;2.30;;;13.00;75.90;;;;;;5089111;28;20023;-83
2022/09/05 13:32:20;;;;;;;3.75;2.28;;;13.10;75.60;;;;;;5085260;28;20481;-82
2022/09/05 13:34:54;;;;;;;7.22;2.58;;;13.10;74.10;;;;;;5086956;28;20041;-83
2022/09/05 13:37:28;;;;;;;2.13;1.02;;;13.20;73.90;;;;;;5074726;28;20020;-82
2022/09/05 13:40:18;;;;;;;2.97;1.10;;;13.20;70.20;;;;;;5077248;28;20021;-83
2022/09/05 13:42:56;;;;;;;5.32;1.85;;;13.10;69.90;;;;;;5087263;28;20043;-81
2022/09/05 13:45:22;;;;;;;4.63;1.33;;;13.10;69.90;;;;;;5088374;28;20397;-84
2022/09/05 13:48:14;;;;;;;1.92;1.10;;;13.10;69.90;;;;;;5090316;28;20023;-81
2022/09/05 13:50:45;;;;;;;5.30;1.58;;;13.00;70.10;;;;;;5093014;28;20028;-81
2022/09/05 13:53:31;;;;;;;4.45;0.70;;;13.00;70.30;;;;;;5086032;28;20485;-83
2022/09/05 13:56:24;;;;;;;3.40;0.90;;;13.00;69.50;;;;;;5084204;28;20052;-81
2022/09/05 13:58:58;;;;;;;3.50;1.60;;;12.90;70.30;;;;;;5067585;28;20048;-80
2022/09/05 14:01:45;;;;;;;2.83;1.10;;;12.90;70.10;;;;;;5098939;28;20089;-82
2022/09/05 14:04:47;;;;;;;2.65;1.13;;;12.90;69.80;;;;;;5084995;28;20020;-80
2022/09/05 14:07:33;;;;;;;2.13;0.98;;;12.90;70.10;;;;;;5085927;28;20406;-80
2022/09/05 14:10:36;;;;;;;1.75;0.50;;;12.90;69.80;;;;;;5080465;28;20090;-82
2022/09/05 14:13:32;;;;;;;0.90;0.50;;;12.80;69.10;;;;;;5083056;28;20022;-81
2022/09/05 14:16:04;;;;;;;2.60;1.00;;;12.70;68.90;;;;;;5080691;28;20032;-84
2022/09/05 14:21:14;;;;;;;2.28;0.90;;;12.60;68.90;;;;;;5087715;28;20020;-82
2022/09/05 14:21:31;;;;;;;2.53;0.70;;;12.70;68.40;;;;;;5081723;28;20089;-82